Date,TemperatureHighF,TemperatureAvgF,TemperatureLowF,DewpointHighF,DewpointAvgF,DewpointLowF,HumidityHigh,HumidityAvg,HumidityLow,PressureMaxIn,PressureMinIn,WindSpeedMaxMPH,WindSpeedAvgMPH,GustSpeedMaxMPH,PrecipitationSumIn
2013-5-1,98,64,41,49,41,35,82,49,17,30.52,30.34,5,1,12,0.00
2013-5-2,99,69,43,54,45,36,82,48,19,30.54,30.33,6,2,13,0.00
2013-5-3,91,64,47,46,38,29,66,40,16,30.56,30.38,5,2,12,0.00
2013-5-4,97,64,41,53,44,36,85,54,19,30.41,30.24,5,1,9,0.00
2013-5-5,98,65,42,49,42,36,85,50,15,30.36,30.21,4,2,10,0.00
2013-5-6,98,63,41,52,39,21,85,50,9,30.33,30.15,5,2,10,0.00
2013-5-7,100,68,44,61,49,36,85,56,20,30.24,30.12,5,2,10,0.00
2013-5-8,78,65,51,63,56,47,88,76,56,30.24,30.08,4,1,9,0.08
2013-5-9,94,65,52,68,54,45,89,70,29,30.08,29.93,5,1,11,0.00
2013-5-10,85,67,49,64,56,46,89,70,43,30.07,29.89,5,1,9,0.00
2013-5-11,72,63,56,69,58,52,89,83,72,29.91,29.73,6,2,9,0.75
2013-5-12,73,56,41,56,43,27,90,65,27,29.88,29.74,8,3,19,0.04
2013-5-13,60,45,35,39,33,27,76,63,44,30.10,29.88,8,4,17,0.00
2013-5-14,80,50,31,46,34,26,85,58,25,30.17,30.04,4,1,9,0.00
2013-5-15,67,48,31,59,41,26,89,75,53,30.08,29.66,7,2,14,0.28
2013-5-16,87,60,41,60,47,38,90,67,26,29.81,29.71,10,4,19,0.00
2013-5-22,92,74,67,84,69,63,89,85,73,29.92,29.86,4,1,7,0.00
2013-5-23,83,71,64,73,66,57,89,83,69,29.93,29.82,6,3,12,0.55
2013-5-24,65,54,44,57,48,37,83,78,71,30.05,29.74,6,1,9,1.06
2013-5-25,51,45,43,47,40,36,88,80,76,30.04,29.95,4,2,11,0.67
2013-5-26,77,53,41,59,45,36,90,75,46,30.15,29.91,6,2,15,0.16
2013-5-27,94,61,39,50,42,36,90,56,18,30.25,30.13,6,2,13,0.00
2013-5-28,80,61,41,55,47,36,85,62,37,30.29,30.17,6,2,11,0.00
2013-5-29,84,65,58,80,60,53,90,84,76,30.17,30.01,4,2,8,0.91
2013-5-30,103,77,59,81,65,50,89,70,39,30.20,30.10,6,2,13,0.00
2013-5-31,110,81,61,77,68,58,90,70,31,30.23,30.05,6,2,13,0.00